Time;durP1;ratioP1;P1;durP2;ratioP2;P2;SDS_P1;SDS_P2;PMS_P1;PMS_P2;Temp;Humidity;BMP_temperature;BMP_pressure;BME280_temperature;BME280_humidity;BME280_pressure;Samples;Min_cycle;Max_cycle;Signal;HPM_P1;HPM_P2
2023/01/03 00:03:55;;;;;;;15.60;11.18;;;;;;;6.21;83.88;100726.92;3336982;83;21014;-79
2023/01/03 00:08:47;;;;;;;15.05;11.28;;;;;;;6.32;84.11;100727.30;3336606;83;21492;-78
2023/01/03 00:13:38;;;;;;;12.98;9.68;;;;;;;6.48;84.36;100741.19;3348063;83;21485;-79
2023/01/03 00:18:29;;;;;;;13.58;9.28;;;;;;;6.63;84.42;100718.86;3348050;83;21031;-78
2023/01/03 00:23:20;;;;;;;12.63;9.38;;;;;;;6.75;84.39;100716.67;3357338;83;20901;-78
2023/01/03 00:28:11;;;;;;;13.10;9.37;;;;;;;6.75;84.30;100716.67;3334629;83;20947;-79
2023/01/03 00:33:02;;;;;;;13.50;10.50;;;;;;;6.94;84.43;100726.30;3350949;83;21192;-79
2023/01/03 00:37:54;;;;;;;13.50;9.73;;;;;;;7.05;84.42;100728.83;3297853;83;20987;-79
2023/01/03 00:47:54;;;;;;;13.83;9.93;;;;;;;7.27;84.31;100757.95;3316748;83;20956;-78
2023/01/03 00:52:45;;;;;;;14.05;9.05;;;;;;;7.44;84.27;100773.58;3307827;83;20991;-78
2023/01/03 00:57:36;;;;;;;15.58;9.58;;;;;;;7.56;84.01;100773.92;3334339;83;21143;-78
2023/01/03 01:02:28;;;;;;;14.58;8.70;;;;;;;7.65;83.84;100770.73;3326260;83;21440;-79
2023/01/03 01:07:19;;;;;;;13.32;9.43;;;;;;;7.69;83.62;100776.88;3332900;83;20995;-78
2023/01/03 01:12:10;;;;;;;13.05;9.10;;;;;;;7.71;83.47;100768.34;3309416;83;20941;-79
2023/01/03 01:17:06;;;;;;;12.03;9.25;;;;;;;7.78;83.58;100768.08;3331706;83;21002;-79
2023/01/03 01:21:58;;;;;;;13.10;9.50;;;;;;;7.88;83.36;100778.30;3198849;86;21091;-79
2023/01/03 01:26:50;;;;;;;15.15;10.00;;;;;;;7.91;83.23;100775.39;3220735;86;21550;-79
2023/01/03 01:31:42;;;;;;;12.63;10.25;;;;;;;7.91;83.23;100775.39;3202419;86;20928;-78
2023/01/03 01:36:36;;;;;;;18.27;10.00;;;;;;;7.89;82.98;100778.35;3204019;86;21523;-79
2023/01/03 01:46:42;;;;;;;11.22;8.55;;;;;;;7.94;82.98;100785.84;3290200;84;21320;-79
2023/01/03 01:51:35;;;;;;;13.72;9.15;;;;;;;7.99;82.98;100794.62;3306517;84;21035;-78
2023/01/03 01:56:40;;;;;;;16.73;9.98;;;;;;;8.10;82.98;100801.41;3292080;84;20970;-78
2023/01/03 02:01:33;;;;;;;18.27;9.68;;;;;;;8.19;82.85;100799.06;3281850;84;21008;-78
2023/01/03 02:06:28;;;;;;;13.00;8.45;;;;;;;8.29;82.67;100801.48;3303252;85;21723;-78
2023/01/03 02:17:37;;;;;;;11.22;8.50;;;;;;;8.53;82.38;100805.59;3285706;84;20966;-78
2023/01/03 02:23:11;;;;;;;11.85;8.90;;;;;;;8.65;82.16;100805.92;3285038;84;21442;-78
2023/01/03 02:28:19;;;;;;;15.55;7.85;;;;;;;8.72;82.02;100810.42;3279458;85;20974;-78
2023/01/03 02:33:40;;;;;;;15.50;8.60;;;;;;;8.80;81.82;100822.31;3313167;84;20978;-78
2023/01/03 02:38:39;;;;;;;11.38;8.50;;;;;;;8.88;81.79;100831.58;3307635;84;21121;-78
2023/01/03 02:43:56;;;;;;;12.53;8.45;;;;;;;8.96;81.65;100840.45;3061649;91;21058;-78
2023/01/03 02:49:01;;;;;;;11.97;9.33;;;;;;;9.09;81.55;100839.90;3112135;89;22547;-79
2023/01/03 02:53:55;;;;;;;12.40;8.73;;;;;;;9.19;81.24;100855.69;3122323;89;21071;-79
2023/01/03 02:58:52;;;;;;;13.60;8.28;;;;;;;9.24;81.08;100857.55;3077832;89;21087;-79
2023/01/03 03:03:45;;;;;;;12.93;8.30;;;;;;;9.28;80.90;100851.62;3119111;89;22030;-79
2023/01/03 03:08:36;;;;;;;10.82;8.68;;;;;;;9.35;80.69;100852.22;3093451;89;21067;-79
2023/01/03 03:13:45;;;;;;;13.18;8.93;;;;;;;9.39;80.61;100850.58;3091312;89;21157;-78
2023/01/03 03:18:58;;;;;;;9.95;7.83;;;;;;;9.42;80.36;100851.92;3165725;86;21494;-78
2023/01/03 03:29:11;;;;;;;12.70;8.28;;;;;;;9.45;80.27;100867.58;3278393;85;22012;-78
2023/01/03 03:34:30;;;;;;;13.72;7.42;;;;;;;9.44;80.26;100885.70;3278712;85;20974;-79
2023/01/03 03:49:52;;;;;;;11.85;7.30;;;;;;;9.35;80.33;100908.02;3273006;85;20994;-78
2023/01/03 03:54:49;;;;;;;12.70;8.18;;;;;;;9.37;80.57;100915.81;3273774;85;21109;-79
2023/01/03 03:59:44;;;;;;;11.10;7.28;;;;;;;9.35;80.55;100917.09;3275912;85;20912;-78
2023/01/03 04:04:40;;;;;;;11.73;7.03;;;;;;;9.31;80.49;100926.05;3253126;85;21582;-78
2023/01/03 04:09:31;;;;;;;9.80;7.20;;;;;;;9.22;80.46;100936.20;3277744;85;20994;-78
2023/01/03 04:14:22;;;;;;;9.80;6.60;;;;;;;9.12;80.56;100937.26;3276538;85;21520;-79
2023/01/03 04:19:13;;;;;;;8.60;6.30;;;;;;;9.05;80.72;100953.50;3292309;85;22022;-78
2023/01/03 04:24:05;;;;;;;7.10;5.28;;;;;;;9.00;80.72;100960.27;3275144;85;21013;-79
2023/01/03 04:28:56;;;;;;;10.58;5.55;;;;;;;8.96;80.65;100967.52;3233364;85;21602;-79
2023/01/03 04:33:47;;;;;;;8.08;5.25;;;;;;;8.97;80.60;100971.84;3275386;85;20988;-79
2023/01/03 04:38:38;;;;;;;6.70;4.80;;;;;;;8.96;80.37;100979.19;3251363;85;20943;-79
2023/01/03 04:48:39;;;;;;;6.42;4.30;;;;;;;8.86;80.24;100988.83;3205221;86;21015;-78
2023/01/03 04:53:30;;;;;;;4.35;3.58;;;;;;;8.79;80.16;100996.84;3228987;84;21403;-79
2023/01/03 04:58:21;;;;;;;5.00;4.00;;;;;;;8.71;80.12;100992.75;3222216;85;21064;-79
2023/01/03 05:03:12;;;;;;;4.33;3.25;;;;;;;8.65;80.13;100999.03;3263972;85;21046;-78
2023/01/03 05:08:07;;;;;;;4.70;3.02;;;;;;;8.58;80.17;101010.05;3205053;84;21162;-79
2023/01/03 05:12:59;;;;;;;5.10;3.67;;;;;;;8.56;80.26;101018.20;3252918;86;20991;-79
2023/01/03 05:17:50;;;;;;;3.77;3.17;;;;;;;8.53;80.21;101025.48;3228348;84;21021;-80
2023/01/03 05:27:51;;;;;;;4.40;2.65;;;;;;;8.44;80.02;101034.67;3280817;84;20962;-79
2023/01/03 05:32:43;;;;;;;5.35;2.67;;;;;;;8.35;80.09;101033.54;3284216;84;21431;-80
2023/01/03 05:37:36;;;;;;;5.33;3.27;;;;;;;8.29;79.87;101039.81;3225239;85;20989;-80
2023/01/03 05:42:27;;;;;;;3.95;3.27;;;;;;;8.24;79.92;101050.44;3260427;84;21014;-79
2023/01/03 05:47:22;;;;;;;6.87;3.50;;;;;;;8.20;80.08;101052.48;3243427;85;21026;-80
2023/01/03 05:52:13;;;;;;;4.28;3.30;;;;;;;8.14;80.45;101048.41;3225159;85;21084;-79
2023/01/03 05:57:05;;;;;;;2.98;2.67;;;;;;;8.07;80.26;101052.50;3260277;85;22532;-79
2023/01/03 06:01:56;;;;;;;3.05;2.75;;;;;;;8.01;80.41;101062.25;3250500;85;21454;-79
2023/01/03 06:06:47;;;;;;;3.50;3.20;;;;;;;7.93;80.28;101068.88;3261748;85;21527;-79
2023/01/03 06:11:40;;;;;;;6.05;3.90;;;;;;;7.86;80.26;101074.67;3229799;85;20924;-79
2023/01/03 06:21:40;;;;;;;7.65;3.50;;;;;;;7.78;80.30;101089.05;3255301;85;21907;-79
2023/01/03 06:26:31;;;;;;;5.28;3.17;;;;;;;7.74;80.14;101101.43;3256758;85;20940;-79
2023/01/03 06:31:22;;;;;;;8.08;4.03;;;;;;;7.66;80.16;101113.24;3263643;85;21038;-79
2023/01/03 06:36:17;;;;;;;6.78;3.52;;;;;;;7.62;80.36;101122.61;3265967;85;20952;-79
2023/01/03 06:41:09;;;;;;;6.08;3.25;;;;;;;7.65;80.33;101123.98;3226600;85;20971;-79
2023/01/03 06:56:22;;;;;;;4.50;2.72;;;;;;;7.84;80.06;101148.82;3358227;83;21525;-79
2023/01/03 07:01:14;;;;;;;3.47;2.40;;;;;;;7.88;79.88;101141.62;3329673;83;20933;-79
2023/01/03 07:06:06;;;;;;;2.37;2.15;;;;;;;7.90;79.66;101152.91;3335447;83;20870;-79
2023/01/03 07:10:57;;;;;;;4.12;2.20;;;;;;;7.93;79.48;101156.91;3334901;83;21227;-78
2023/01/03 07:15:48;;;;;;;3.12;2.00;;;;;;;7.94;79.08;101172.92;3304487;83;21021;-79
2023/01/03 07:20:44;;;;;;;2.83;1.52;;;;;;;7.95;78.97;101174.66;3330686;83;20976;-79
2023/01/03 07:25:40;;;;;;;3.00;1.80;;;;;;;7.98;78.84;101178.66;3276580;83;21734;-79
2023/01/03 07:30:29;;;;;;;4.35;1.82;;;;;;;8.00;78.49;101190.38;3352569;83;21039;-79
2023/01/03 07:35:20;;;;;;;2.50;1.57;;;;;;;8.05;78.61;101200.88;3321074;83;21003;-79
2023/01/03 07:40:11;;;;;;;2.75;1.70;;;;;;;8.05;78.61;101200.88;3328175;83;21538;-79
2023/01/03 07:45:03;;;;;;;4.33;2.17;;;;;;;8.07;78.28;101210.91;3309155;84;20918;-79
2023/01/03 07:49:54;;;;;;;5.50;2.75;;;;;;;8.11;78.25;101219.23;3263592;84;20944;-79
2023/01/03 07:54:46;;;;;;;4.90;2.00;;;;;;;8.13;78.20;101226.64;3351973;83;21032;-79
2023/01/03 07:59:36;;;;;;;5.30;2.52;;;;;;;8.18;78.18;101236.75;3353459;83;21352;-80
2023/01/03 08:04:28;;;;;;;4.20;2.65;;;;;;;8.19;78.20;101242.38;3328901;84;21654;-79
2023/01/03 08:14:29;;;;;;;3.27;2.58;;;;;;;8.31;78.23;101249.29;3328443;83;21570;-79
2023/01/03 08:19:20;;;;;;;7.15;3.65;;;;;;;8.37;78.45;101254.70;3318267;83;21139;-79
2023/01/03 08:24:11;;;;;;;3.83;3.00;;;;;;;8.47;78.43;101250.73;3333008;84;21137;-78
2023/01/03 08:29:02;;;;;;;6.50;3.08;;;;;;;8.65;78.37;101264.73;3349639;83;20950;-79
2023/01/03 08:33:57;;;;;;;4.65;3.70;;;;;;;8.76;78.37;101260.80;3307516;83;21090;-79
2023/01/03 08:39:00;;;;;;;5.25;3.70;;;;;;;8.88;78.23;101267.22;3323925;83;20952;-79
2023/01/03 08:43:53;;;;;;;4.62;4.12;;;;;;;8.95;78.13;101256.20;3352781;83;21114;-79
2023/01/03 08:48:45;;;;;;;5.87;4.42;;;;;;;9.08;77.94;101260.94;3336545;83;22006;-79
2023/01/03 08:53:36;;;;;;;4.50;4.10;;;;;;;9.11;77.80;101266.66;3343453;83;21006;-79
2023/01/03 08:58:27;;;;;;;6.75;4.97;;;;;;;9.13;77.84;101277.53;3275090;83;21601;-79
2023/01/03 09:03:18;;;;;;;6.30;4.95;;;;;;;9.31;77.85;101284.14;3298367;83;20946;-79
2023/01/03 09:08:09;;;;;;;7.37;6.08;;;;;;;9.44;77.40;101290.16;3309826;83;20944;-79
2023/01/03 09:13:03;;;;;;;7.78;5.45;;;;;;;9.47;77.43;101283.78;3262059;84;20991;-79
2023/01/03 09:17:54;;;;;;;6.83;5.22;;;;;;;9.44;77.16;101283.67;3320124;83;21509;-78
2023/01/03 09:22:46;;;;;;;5.13;4.60;;;;;;;9.44;76.96;101294.05;3332277;83;20997;-79
2023/01/03 09:27:37;;;;;;;5.33;4.62;;;;;;;9.41;76.51;101296.58;3313851;83;20980;-79
2023/01/03 09:32:28;;;;;;;6.15;4.22;;;;;;;9.41;76.67;101296.58;3284089;83;20955;-78
2023/01/03 09:37:19;;;;;;;4.55;3.77;;;;;;;9.43;76.23;101297.50;3303343;83;20960;-79
2023/01/03 09:47:35;;;;;;;3.72;3.27;;;;;;;9.49;75.52;101306.77;3294858;84;20983;-78
2023/01/03 10:08:47;;;;;;;4.65;2.95;;;;;;;9.74;73.08;101301.02;3272444;85;20998;-80
2023/01/03 10:13:48;;;;;;;;;;;;;;;9.63;72.73;101308.92;3279690;85;20952;-82
2023/01/03 10:19:17;;;;;;;4.12;2.08;;;;;;;9.50;72.83;101312.44;3296303;83;20169;-80
2023/01/03 10:24:30;;;;;;;2.10;1.87;;;;;;;9.54;72.68;101307.79;3294233;85;21553;-79
2023/01/03 10:29:26;;;;;;;1.72;1.60;;;;;;;9.63;71.63;101320.60;3271678;84;21502;-82
2023/01/03 10:34:17;;;;;;;3.08;1.82;;;;;;;9.79;71.83;101321.52;3241599;86;21574;-79
2023/01/03 10:39:10;;;;;;;4.55;1.67;;;;;;;10.88;69.91;101308.94;3289393;85;21080;-80
2023/01/03 10:44:03;;;;;;;3.40;1.47;;;;;;;11.36;68.15;101314.44;3278052;85;21043;-78
2023/01/03 10:48:59;;;;;;;3.98;1.65;;;;;;;10.67;68.12;101310.99;3324742;83;20984;-80
2023/01/03 10:53:52;;;;;;;3.77;1.65;;;;;;;10.38;68.68;101313.70;3362754;83;20996;-78
2023/01/03 10:58:43;;;;;;;5.12;1.90;;;;;;;10.22;68.67;101330.55;3340680;83;21473;-79
2023/01/03 11:03:36;;;;;;;2.45;1.70;;;;;;;10.22;68.55;101330.55;3345533;83;21665;-79
2023/01/03 11:08:48;;;;;;;3.65;1.77;;;;;;;10.28;68.38;101329.45;3329206;83;20993;-80
2023/01/03 11:13:41;;;;;;;3.27;1.60;;;;;;;10.45;68.38;101331.66;3347005;83;20977;-81
2023/01/03 11:18:33;;;;;;;4.78;1.47;;;;;;;11.80;65.37;101328.45;3337706;83;20980;-80
2023/01/03 11:24:04;;;;;;;3.72;1.40;;;;;;;12.37;65.13;101328.75;3361116;83;20997;-79
2023/01/03 11:29:07;;;;;;;1.82;1.30;;;;;;;12.37;64.21;101335.27;3384796;83;21508;-79
2023/01/03 11:34:26;;;;;;;3.27;1.40;;;;;;;14.10;61.83;101347.64;3348090;83;20965;-81
2023/01/03 11:39:28;;;;;;;3.35;1.65;;;;;;;12.96;59.96;101353.75;3367450;83;21024;-80
2023/01/03 11:44:42;;;;;;;1.65;1.55;;;;;;;11.44;60.84;101363.22;3360919;82;21963;-79
2023/01/03 11:50:23;;;;;;;3.20;1.22;;;;;;;10.68;60.81;101369.55;3360885;83;21106;-80
2023/01/03 11:55:48;;;;;;;1.60;1.40;;;;;;;10.35;61.83;101373.82;3196361;87;20936;-80
2023/01/03 12:00:59;;;;;;;2.70;1.30;;;;;;;10.58;61.53;101364.94;3202736;85;21098;-80
2023/01/03 12:06:32;;;;;;;2.87;1.70;;;;;;;10.23;61.84;101357.02;3168468;88;21045;-80
2023/01/03 12:11:54;;;;;;;3.05;2.25;;;;;;;10.21;61.94;101365.59;3017145;93;21098;-80
2023/01/03 12:16:53;;;;;;;3.25;2.17;;;;;;;9.74;61.84;101373.73;3020797;93;21170;-80
2023/01/03 12:21:59;;;;;;;2.83;1.65;;;;;;;9.19;62.90;101384.94;3023360;93;21037;-78
2023/01/03 12:27:16;;;;;;;2.02;1.70;;;;;;;8.75;62.64;101386.07;3060794;90;21009;-79
2023/01/03 12:32:33;;;;;;;3.90;2.00;;;;;;;8.40;63.09;101388.23;3053358;90;26622;-78
2023/01/03 12:37:32;;;;;;;5.12;2.08;;;;;;;8.17;63.47;101383.92;3060239;91;21618;-79
2023/01/03 12:42:54;;;;;;;4.03;1.65;;;;;;;7.97;63.85;101376.70;3066809;90;21078;-80
2023/01/03 12:47:50;;;;;;;4.20;1.67;;;;;;;7.82;64.18;101396.42;3265790;83;20967;-79
2023/01/03 12:52:44;;;;;;;3.50;1.82;;;;;;;7.66;64.28;101386.30;3357505;82;28321;-78
2023/01/03 12:57:55;;;;;;;3.17;2.33;;;;;;;7.60;64.41;101392.98;3336531;83;20994;-77
2023/01/03 13:02:57;;;;;;;2.40;1.72;;;;;;;7.52;64.33;101390.91;3361662;82;21025;-80
2023/01/03 13:08:05;;;;;;;2.05;1.20;;;;;;;7.47;64.67;101400.19;3365602;82;21085;-80
2023/01/03 13:12:58;;;;;;;1.85;1.45;;;;;;;7.37;64.51;101392.48;3335607;83;21009;-79
2023/01/03 13:17:49;;;;;;;1.67;1.12;;;;;;;7.37;64.51;101392.48;3363875;83;20989;-79
2023/01/03 13:22:49;;;;;;;2.45;1.50;;;;;;;7.34;64.46;101393.64;3361515;82;21614;-79
2023/01/03 13:27:49;;;;;;;3.30;1.80;;;;;;;7.30;64.46;101394.31;3389011;82;20987;-80
2023/01/03 13:33:12;;;;;;;4.37;1.72;;;;;;;7.23;64.29;101390.19;3369096;83;21014;-79
2023/01/03 13:38:37;;;;;;;3.42;1.75;;;;;;;7.17;64.45;101397.71;3370081;82;21010;-79
2023/01/03 13:43:36;;;;;;;4.62;2.77;;;;;;;7.08;64.61;101392.13;3348328;83;20998;-80
2023/01/03 13:48:35;;;;;;;3.22;1.45;;;;;;;6.99;64.64;101404.67;3335811;83;20949;-81
2023/01/03 13:53:37;;;;;;;3.80;2.17;;;;;;;6.81;65.15;101414.69;3389706;82;21210;-80
2023/01/03 13:58:42;;;;;;;6.97;2.17;;;;;;;6.81;65.15;101414.69;3363299;83;20971;-79
2023/01/03 14:04:02;;;;;;;3.40;2.20;;;;;;;6.74;65.47;101421.70;3329842;83;21008;-80
2023/01/03 14:09:28;;;;;;;2.50;1.90;;;;;;;6.64;65.62;101426.89;3331112;82;20993;-80
2023/01/03 14:14:24;;;;;;;4.97;2.00;;;;;;;6.46;66.20;101441.16;3380791;83;21035;-79
2023/01/03 14:19:31;;;;;;;4.05;2.22;;;;;;;6.46;66.20;101441.16;3367288;83;22026;-79
2023/01/03 14:24:29;;;;;;;2.72;1.95;;;;;;;6.38;66.42;101443.79;3369404;83;20913;-78
2023/01/03 14:29:25;;;;;;;3.77;3.27;;;;;;;6.30;66.44;101443.87;3383786;83;21038;-79
2023/01/03 14:34:33;;;;;;;3.75;2.22;;;;;;;6.21;66.73;101450.78;3337317;84;21059;-78
2023/01/03 14:39:31;;;;;;;2.98;2.33;;;;;;;6.14;66.96;101459.05;3324322;83;21081;-78
2023/01/03 14:44:16;;;;;;;4.05;2.77;;;;;;;6.03;67.32;101462.84;3318944;82;20970;-78
2023/01/03 14:49:19;;;;;;;4.65;2.22;;;;;;;6.03;67.32;101462.84;3314148;84;29103;-77
2023/01/03 14:54:15;;;;;;;4.72;2.40;;;;;;;5.90;67.44;101473.83;3293297;84;20962;-77
2023/01/03 14:59:08;;;;;;;4.28;2.20;;;;;;;5.81;67.65;101478.94;3270037;84;21072;-77
2023/01/03 15:04:00;;;;;;;5.28;2.70;;;;;;;5.71;67.76;101483.66;3243000;84;21589;-77
2023/01/03 15:08:57;;;;;;;3.42;2.52;;;;;;;5.62;67.96;101485.80;3308430;84;21156;-78
2023/01/03 15:13:54;;;;;;;9.55;2.95;;;;;;;5.57;68.15;101495.00;3290094;84;21048;-77
2023/01/03 15:18:46;;;;;;;6.22;3.00;;;;;;;5.52;68.36;101493.88;3360426;83;20970;-78
2023/01/03 15:23:47;;;;;;;5.15;3.12;;;;;;;5.44;68.47;101505.52;3331026;84;21013;-78
2023/01/03 15:28:55;;;;;;;4.97;3.37;;;;;;;5.38;69.02;101505.20;3330499;83;21013;-77
2023/01/03 15:34:00;;;;;;;8.35;3.02;;;;;;;5.38;69.02;101505.20;3300461;84;24054;-77
2023/01/03 15:38:52;;;;;;;5.72;3.52;;;;;;;5.33;69.02;101512.72;3322279;83;21483;-78
2023/01/03 15:43:43;;;;;;;7.53;3.33;;;;;;;5.25;69.18;101509.73;3271614;84;22445;-77
2023/01/03 15:48:35;;;;;;;6.37;3.10;;;;;;;5.20;69.34;101501.28;3291410;83;21444;-78
2023/01/03 15:53:34;;;;;;;5.90;3.42;;;;;;;5.14;69.49;101503.14;3344070;83;21022;-78
2023/01/03 15:58:27;;;;;;;5.80;3.52;;;;;;;5.10;69.71;101507.67;3342857;83;21971;-77
2023/01/03 16:03:21;;;;;;;4.60;2.90;;;;;;;5.07;69.86;101513.94;3330090;83;21010;-77
2023/01/03 16:08:30;;;;;;;8.83;4.55;;;;;;;5.03;69.92;101522.33;3330261;84;21620;-77
2023/01/03 16:13:22;;;;;;;5.42;4.22;;;;;;;4.98;70.06;101526.36;3342852;83;20915;-78
2023/01/03 16:18:21;;;;;;;6.50;3.62;;;;;;;4.93;69.97;101532.13;3334036;83;21660;-78
2023/01/03 16:23:28;;;;;;;7.15;3.70;;;;;;;4.86;70.08;101539.47;3343107;83;21065;-78
2023/01/03 16:28:21;;;;;;;8.95;5.20;;;;;;;4.79;70.25;101538.24;3328374;83;21062;-78
2023/01/03 16:33:19;;;;;;;8.55;5.95;;;;;;;4.73;70.40;101542.67;3278565;83;20927;-78
2023/01/03 16:38:14;;;;;;;6.72;4.67;;;;;;;4.63;70.41;101540.39;3295152;83;21906;-79
2023/01/03 16:43:05;;;;;;;8.80;4.72;;;;;;;4.56;70.46;101548.59;3329507;83;20960;-78
2023/01/03 16:47:59;;;;;;;9.15;4.72;;;;;;;4.52;70.63;101551.40;3344352;83;21872;-79
2023/01/03 16:52:53;;;;;;;9.15;5.37;;;;;;;4.58;70.82;101549.17;3277713;85;20987;-78
2023/01/03 16:57:45;;;;;;;6.25;4.90;;;;;;;4.70;70.85;101557.08;3272258;85;21002;-78
2023/01/03 17:02:36;;;;;;;10.00;5.75;;;;;;;4.78;70.79;101557.10;3310256;85;21572;-78
2023/01/03 17:07:27;;;;;;;8.98;4.92;;;;;;;4.82;70.75;101563.30;3264879;85;21002;-78
2023/01/03 17:12:22;;;;;;;9.18;5.62;;;;;;;4.82;70.92;101559.03;3254499;85;22732;-78
2023/01/03 17:17:20;;;;;;;9.35;6.10;;;;;;;4.83;71.10;101559.91;3162890;88;21016;-78
2023/01/03 17:22:28;;;;;;;7.08;5.83;;;;;;;4.81;71.22;101554.70;3197180;86;21028;-79
2023/01/03 17:27:24;;;;;;;9.35;5.55;;;;;;;4.77;71.29;101560.47;3223819;86;21014;-79
2023/01/03 17:32:20;;;;;;;6.80;5.28;;;;;;;4.67;71.29;101557.81;3257518;85;21583;-80
2023/01/03 17:37:16;;;;;;;8.75;5.85;;;;;;;4.61;71.45;101555.30;3303670;85;21943;-79
2023/01/03 17:42:15;;;;;;;7.20;4.47;;;;;;;4.56;71.50;101557.23;3314279;84;20979;-78
2023/01/03 17:52:35;;;;;;;8.00;4.37;;;;;;;4.47;71.51;101565.73;3344418;83;20991;-79
2023/01/03 17:57:27;;;;;;;9.65;4.65;;;;;;;4.42;71.55;101572.32;3370308;83;20987;-78
2023/01/03 18:02:34;;;;;;;9.65;5.35;;;;;;;4.37;71.64;101579.77;3356609;83;21473;-78
2023/01/03 18:07:33;;;;;;;7.60;5.75;;;;;;;4.30;71.76;101584.50;3318479;83;21669;-79
2023/01/03 18:12:25;;;;;;;14.23;8.20;;;;;;;4.24;71.99;101581.56;3329774;82;20971;-76
2023/01/03 18:17:27;;;;;;;11.57;6.97;;;;;;;4.16;72.08;101592.73;3362255;83;21054;-77
2023/01/03 18:22:21;;;;;;;12.88;7.72;;;;;;;4.10;72.29;101598.41;3340114;83;20999;-76
2023/01/03 18:27:13;;;;;;;11.38;8.98;;;;;;;4.13;72.54;101611.47;3380488;83;21892;-77
2023/01/03 18:32:27;;;;;;;13.40;7.55;;;;;;;4.22;72.71;101615.34;3319482;83;21323;-76
2023/01/03 18:37:21;;;;;;;15.05;6.83;;;;;;;4.30;72.71;101614.98;3337479;83;21018;-77
2023/01/03 18:47:24;;;;;;;14.93;9.60;;;;;;;4.47;72.58;101621.11;3347686;83;20963;-77
2023/01/03 18:52:25;;;;;;;11.25;8.50;;;;;;;4.51;72.65;101623.05;3316174;83;21000;-77
2023/01/03 18:57:18;;;;;;;17.20;9.33;;;;;;;4.56;72.77;101622.91;3342183;83;21023;-77
2023/01/03 19:02:15;;;;;;;10.00;7.80;;;;;;;4.61;72.64;101633.86;3339162;83;21003;-77
2023/01/03 19:07:20;;;;;;;10.15;7.17;;;;;;;4.62;72.61;101623.64;3374593;82;21450;-77
2023/01/03 19:12:19;;;;;;;12.35;7.60;;;;;;;4.65;72.65;101624.20;3357190;83;21192;-76
2023/01/03 19:17:14;;;;;;;11.80;8.05;;;;;;;4.70;72.60;101629.20;3348872;83;21298;-77
2023/01/03 19:22:27;;;;;;;13.00;7.53;;;;;;;4.73;72.49;101628.09;3346759;83;20987;-77
2023/01/03 19:27:26;;;;;;;10.82;6.58;;;;;;;4.74;72.49;101628.19;3373115;83;20926;-76
2023/01/03 19:32:24;;;;;;;12.65;7.47;;;;;;;4.76;72.51;101625.70;3362347;83;20964;-77
2023/01/03 19:37:15;;;;;;;9.18;6.60;;;;;;;4.76;72.51;101625.70;3343814;83;20947;-76
2023/01/03 19:47:23;;;;;;;14.93;6.62;;;;;;;4.76;72.11;101633.02;3320862;83;21317;-76
2023/01/03 19:52:16;;;;;;;16.25;6.87;;;;;;;4.78;71.95;101639.55;3376085;83;21505;-77
2023/01/03 19:57:19;;;;;;;7.87;5.35;;;;;;;4.81;71.86;101641.39;3351171;83;20982;-77
2023/01/03 20:02:37;;;;;;;8.98;5.00;;;;;;;4.81;71.72;101646.55;3349806;83;20963;-77
2023/01/03 20:07:28;;;;;;;10.15;4.83;;;;;;;4.83;71.67;101642.36;3340233;83;21247;-77
2023/01/03 20:12:24;;;;;;;9.35;4.97;;;;;;;4.81;71.50;101647.45;3321638;83;21012;-77
2023/01/03 20:17:22;;;;;;;11.75;6.28;;;;;;;4.82;71.45;101638.91;3376084;83;20986;-77
2023/01/03 20:22:13;;;;;;;8.55;5.00;;;;;;;4.82;71.35;101641.48;3325974;83;21619;-76
2023/01/03 20:27:04;;;;;;;10.45;5.08;;;;;;;4.78;71.21;101643.41;3342427;83;21449;-77
2023/01/03 20:31:56;;;;;;;9.40;5.20;;;;;;;4.71;71.23;101642.59;3355519;83;22537;-77
2023/01/03 20:36:52;;;;;;;8.00;5.67;;;;;;;4.65;71.24;101639.66;3311916;83;20999;-77
2023/01/03 20:41:43;;;;;;;8.10;4.65;;;;;;;4.62;71.22;101639.51;3304424;83;20986;-77
2023/01/03 20:46:34;;;;;;;9.90;6.15;;;;;;;4.56;71.10;101648.66;3381635;83;20943;-77
2023/01/03 20:51:28;;;;;;;11.45;5.30;;;;;;;4.56;71.16;101648.66;3327578;83;20912;-77
2023/01/03 20:56:19;;;;;;;7.28;5.22;;;;;;;4.57;71.25;101652.99;3343211;83;21849;-77
2023/01/03 21:01:10;;;;;;;7.65;4.80;;;;;;;4.58;71.06;101665.50;3301987;82;20994;-77
2023/01/03 21:06:05;;;;;;;7.53;4.97;;;;;;;4.60;71.06;101666.46;3332101;83;21434;-76
2023/01/03 21:10:56;;;;;;;7.40;5.10;;;;;;;4.62;71.04;101665.27;3293102;83;21386;-76
2023/01/03 21:15:49;;;;;;;8.15;4.97;;;;;;;4.64;71.04;101668.81;3341823;83;20988;-77
2023/01/03 21:20:42;;;;;;;9.63;5.35;;;;;;;4.63;70.77;101665.32;3320818;83;21236;-76
2023/01/03 21:25:35;;;;;;;4.25;3.77;;;;;;;4.64;70.75;101673.96;3329103;83;21014;-77
2023/01/03 21:30:30;;;;;;;9.15;4.22;;;;;;;4.66;70.66;101677.51;3332340;83;20992;-77
2023/01/03 21:35:23;;;;;;;9.08;5.22;;;;;;;4.67;70.63;101679.27;3338903;83;21602;-76
2023/01/03 21:40:24;;;;;;;7.80;4.95;;;;;;;4.66;70.63;101677.51;3297264;83;21141;-76
2023/01/03 21:45:16;;;;;;;8.93;4.92;;;;;;;4.65;70.73;101680.87;3288920;83;21482;-76
2023/01/03 21:50:09;;;;;;;8.23;4.75;;;;;;;4.64;70.62;101693.28;3271054;83;21015;-77
2023/01/03 21:55:05;;;;;;;9.53;5.47;;;;;;;4.63;70.69;101688.92;3302129;82;20982;-76
2023/01/03 21:59:57;;;;;;;8.63;5.20;;;;;;;4.63;70.58;101688.92;3307958;83;20947;-76
2023/01/03 22:04:48;;;;;;;10.15;4.95;;;;;;;4.62;70.68;101691.02;3296845;82;21020;-77
2023/01/03 22:14:48;;;;;;;6.87;4.70;;;;;;;4.59;70.60;101698.16;3375283;83;20976;-77
2023/01/03 22:19:39;;;;;;;7.00;5.15;;;;;;;4.55;70.49;101690.66;3329097;83;21024;-77
2023/01/03 22:24:30;;;;;;;12.68;5.15;;;;;;;4.54;70.46;101694.05;3360089;83;22031;-76
2023/01/03 22:29:21;;;;;;;9.03;4.65;;;;;;;4.53;70.41;101694.84;3347531;83;21000;-76
2023/01/03 22:34:12;;;;;;;13.35;6.08;;;;;;;4.47;70.41;101675.19;3345123;83;22030;-76
2023/01/03 22:39:03;;;;;;;8.63;4.95;;;;;;;4.44;70.43;101678.87;3361923;83;20965;-77
2023/01/03 22:43:54;;;;;;;9.03;4.72;;;;;;;4.40;70.29;101676.92;3292240;83;21589;-77
2023/01/03 22:48:45;;;;;;;7.15;4.62;;;;;;;4.36;70.29;101681.39;3365678;83;20983;-76
2023/01/03 22:53:45;;;;;;;7.97;4.17;;;;;;;4.30;70.26;101679.77;3310777;82;37781;-76
2023/01/03 22:58:37;;;;;;;8.38;5.62;;;;;;;4.24;70.24;101679.02;3338819;83;21197;-76
2023/01/03 23:03:28;;;;;;;8.13;4.60;;;;;;;4.18;70.25;101684.66;3271470;83;20971;-76
2023/01/03 23:08:19;;;;;;;6.58;4.22;;;;;;;4.11;70.28;101693.23;3328623;83;21511;-76
2023/01/03 23:13:11;;;;;;;7.33;4.85;;;;;;;4.07;70.31;101696.03;3360725;83;21030;-77
2023/01/03 23:18:02;;;;;;;9.53;4.78;;;;;;;4.05;70.34;101704.06;3351946;83;21515;-77
2023/01/03 23:22:53;;;;;;;5.70;3.55;;;;;;;4.04;70.39;101694.96;3350088;83;22061;-76
2023/01/03 23:27:44;;;;;;;5.97;3.27;;;;;;;4.02;70.20;101701.30;3356158;83;22022;-76
2023/01/03 23:32:35;;;;;;;6.42;4.62;;;;;;;4.02;70.26;101697.44;3333325;83;21014;-77
2023/01/03 23:37:27;;;;;;;7.65;4.33;;;;;;;4.02;70.36;101700.02;3372798;83;20990;-76
2023/01/03 23:42:20;;;;;;;7.70;4.78;;;;;;;4.00;70.33;101690.03;3341123;83;21632;-76
2023/01/03 23:47:11;;;;;;;7.40;4.72;;;;;;;3.96;70.21;101693.23;3309693;83;21003;-77
2023/01/03 23:52:02;;;;;;;6.15;3.62;;;;;;;3.94;70.28;101703.84;3333011;83;20978;-76
2023/01/03 23:56:54;;;;;;;5.95;3.90;;;;;;;3.92;70.20;101707.60;3296193;83;21013;-77
